Time;durP1;ratioP1;P1;durP2;ratioP2;P2;SDS_P1;SDS_P2;PMS_P1;PMS_P2;Temp;Humidity;BMP_temperature;BMP_pressure;BME280_temperature;BME280_humidity;BME280_pressure;Samples;Min_cycle;Max_cycle;Signal;HPM_P1;HPM_P2
2023/06/03 00:01:07;;;;;;;13.75;5.75;;;;;;;-146.27;90.23;82972.81;5052388;28;20082;-75
2023/06/03 00:03:32;;;;;;;10.73;5.53;;;;;;;-146.27;90.82;82962.75;5050680;28;20029;-74
2023/06/03 00:06:00;;;;;;;14.70;5.78;;;;;;;-146.27;90.78;82968.78;5039733;28;20033;-75
2023/06/03 00:08:26;;;;;;;8.90;5.15;;;;;;;-146.27;91.94;82916.56;5037864;28;20037;-75
2023/06/03 00:10:51;;;;;;;14.20;5.63;;;;;;;-146.27;90.78;82986.88;5042579;28;20126;-75
2023/06/03 00:13:17;;;;;;;10.23;5.55;;;;;;;-146.27;91.46;82972.81;5044233;28;20143;-75
2023/06/03 00:15:42;;;;;;;8.93;5.25;;;;;;;-146.27;91.41;82968.78;5055100;28;20056;-75
2023/06/03 00:18:07;;;;;;;10.32;5.43;;;;;;;-146.27;91.20;82942.66;5049704;28;20035;-75
2023/06/03 00:20:36;;;;;;;11.98;5.22;;;;;;;-146.27;91.29;82990.88;5046783;28;20393;-75
2023/06/03 00:23:05;;;;;;;9.30;5.50;;;;;;;-146.27;91.82;82952.72;5058567;28;20038;-75
2023/06/03 00:25:32;;;;;;;10.27;5.07;;;;;;;-146.27;91.61;82994.91;5056066;28;20033;-75
2023/06/03 00:27:57;;;;;;;8.52;4.97;;;;;;;-146.27;92.41;83027.06;5050439;28;20028;-75
2023/06/03 00:30:23;;;;;;;11.32;4.65;;;;;;;-146.27;91.69;82978.84;5047142;28;20078;-74
2023/06/03 00:32:48;;;;;;;13.10;5.10;;;;;;;-146.27;91.52;82978.84;5043241;28;20112;-74
2023/06/03 00:35:13;;;;;;;10.65;4.70;;;;;;;-146.27;91.92;82954.72;5047380;28;20057;-74
2023/06/03 00:37:39;;;;;;;13.15;6.28;;;;;;;-146.27;91.69;82962.75;5040717;28;20417;-73
2023/06/03 00:40:05;;;;;;;8.02;4.90;;;;;;;-146.27;91.23;82982.84;5031356;28;20044;-74
2023/06/03 00:42:30;;;;;;;11.52;5.35;;;;;;;-146.27;91.90;83015.00;5048364;28;20043;-74
2023/06/03 00:44:56;;;;;;;10.25;5.82;;;;;;;-146.27;92.62;83008.97;5043499;28;20036;-74
2023/06/03 00:47:21;;;;;;;9.57;4.70;;;;;;;-146.27;92.25;83008.97;5049741;28;20025;-73
2023/06/03 00:49:47;;;;;;;10.77;5.00;;;;;;;-146.27;91.63;83002.94;5035061;28;20384;-76
2023/06/03 00:52:14;;;;;;;8.35;4.65;;;;;;;-146.27;91.18;83010.97;5048830;28;20029;-73
2023/06/03 00:54:40;;;;;;;10.13;4.75;;;;;;;-146.27;90.96;83015.00;5042932;28;20022;-72
2023/06/03 00:57:06;;;;;;;11.05;5.30;;;;;;;-146.27;91.71;83035.09;5047454;28;20029;-74
2023/06/03 00:59:31;;;;;;;12.98;4.80;;;;;;;-146.27;91.14;83025.03;5047821;28;20033;-74
2023/06/03 01:01:56;;;;;;;5.32;4.28;;;;;;;-146.27;92.17;83015.00;5048816;28;20048;-75
2023/06/03 01:04:25;;;;;;;8.55;4.93;;;;;;;-146.27;91.74;82996.91;5053517;28;20408;-75
2023/06/03 01:07:23;;;;;;;8.05;4.43;;;;;;;-146.27;91.87;83013.00;5036000;28;20026;-73
2023/06/03 01:10:21;;;;;;;7.47;4.18;;;;;;;-146.27;91.97;83071.25;5030751;28;20037;-75
2023/06/03 01:12:51;;;;;;;7.13;4.32;;;;;;;-146.27;92.36;83027.06;5045277;28;20045;-74
2023/06/03 01:15:20;;;;;;;13.35;5.03;;;;;;;-146.27;92.55;83035.09;5049886;28;20049;-74
2023/06/03 01:17:49;;;;;;;10.50;5.13;;;;;;;-146.27;92.36;83079.28;5059256;28;20476;-74
2023/06/03 01:20:16;;;;;;;8.32;4.35;;;;;;;-146.27;92.79;83037.09;5044381;28;20389;-75
2023/06/03 01:22:44;;;;;;;10.82;4.00;;;;;;;-146.27;92.20;83033.09;5049056;28;20107;-75
2023/06/03 01:25:12;;;;;;;7.00;4.00;;;;;;;-146.27;91.74;83059.19;5049773;28;20036;-75
2023/06/03 01:27:40;;;;;;;6.70;4.20;;;;;;;-146.27;91.72;83051.16;5053069;28;20082;-74
2023/06/03 01:30:09;;;;;;;6.72;4.03;;;;;;;-146.27;92.74;83035.09;5041899;28;20059;-74
2023/06/03 01:32:40;;;;;;;7.68;4.35;;;;;;;-146.27;91.96;83075.28;5034117;28;20485;-74
2023/06/03 01:35:08;;;;;;;6.85;3.95;;;;;;;-146.27;92.41;83073.25;5043940;28;20021;-75
2023/06/03 01:37:34;;;;;;;8.82;4.25;;;;;;;-146.27;92.45;83081.31;5047284;28;20036;-74
2023/06/03 01:40:03;;;;;;;8.50;4.57;;;;;;;-146.27;92.39;83099.38;5041776;28;20500;-74
2023/06/03 01:42:28;;;;;;;9.23;4.22;;;;;;;-146.27;93.09;83093.34;5047107;28;20489;-75
2023/06/03 01:44:56;;;;;;;7.38;4.30;;;;;;;-146.27;92.09;83107.41;5030064;28;20032;-75
2023/06/03 01:47:21;;;;;;;6.45;3.85;;;;;;;-146.27;93.41;83115.47;5040983;28;20029;-74
2023/06/03 01:49:47;;;;;;;7.80;4.20;;;;;;;-146.27;93.17;83117.47;5039140;28;20108;-75
2023/06/03 01:52:12;;;;;;;9.75;4.68;;;;;;;-146.27;92.67;83107.41;5047099;28;20036;-74
2023/06/03 01:54:38;;;;;;;9.23;4.05;;;;;;;-146.27;93.14;83105.41;5029482;28;20429;-74
2023/06/03 01:57:03;;;;;;;13.98;4.10;;;;;;;-146.27;93.07;83119.47;5040727;28;20021;-75
2023/06/03 01:59:29;;;;;;;9.10;4.10;;;;;;;-146.27;92.61;83073.25;5042467;28;20396;-75
2023/06/03 02:01:57;;;;;;;12.57;4.30;;;;;;;-146.27;93.35;83089.34;5033431;28;20384;-74
2023/06/03 02:04:23;;;;;;;7.78;3.97;;;;;;;-146.27;92.83;83105.41;5033808;28;20428;-74
2023/06/03 02:06:52;;;;;;;7.00;3.83;;;;;;;-146.27;93.34;83123.50;5045197;28;20021;-74
2023/06/03 02:09:18;;;;;;;7.53;4.18;;;;;;;-146.27;92.78;83107.41;5039956;28;20037;-75
2023/06/03 02:11:44;;;;;;;9.02;4.20;;;;;;;-146.27;93.27;83145.59;5064390;28;20032;-75
2023/06/03 02:14:11;;;;;;;8.20;4.00;;;;;;;-146.27;93.55;83111.44;5053302;28;20119;-74
2023/06/03 02:16:37;;;;;;;9.65;4.30;;;;;;;-146.27;92.66;83113.44;5038434;28;20088;-75
2023/06/03 02:19:10;;;;;;;6.60;4.43;;;;;;;-146.27;93.71;83089.34;5033211;28;20437;-74
2023/06/03 02:21:36;;;;;;;;;;;;;;;-146.27;92.33;83091.34;5035708;28;20032;-74
2023/06/03 02:24:02;;;;;;;8.55;4.30;;;;;;;-146.27;92.10;83027.06;5043703;28;19913;-74
2023/06/03 02:26:28;;;;;;;6.93;3.72;;;;;;;-146.27;92.78;83099.38;5056058;28;20552;-73
2023/06/03 02:28:54;;;;;;;7.32;3.95;;;;;;;-146.27;92.19;83131.53;5054822;28;20021;-73
2023/06/03 02:31:19;;;;;;;8.68;3.97;;;;;;;-146.27;91.77;83115.47;5040775;28;20038;-74
2023/06/03 02:33:45;;;;;;;8.52;4.05;;;;;;;-146.27;91.76;83149.63;5047320;28;20124;-75
2023/06/03 02:36:11;;;;;;;10.52;3.83;;;;;;;-146.27;92.39;83151.63;5048896;28;20079;-74
2023/06/03 02:38:37;;;;;;;6.75;4.10;;;;;;;-146.27;92.49;83167.69;5057711;28;20044;-75
2023/06/03 02:41:02;;;;;;;8.35;4.40;;;;;;;-146.27;92.38;83157.66;5049910;28;20424;-75
2023/06/03 02:43:27;;;;;;;9.77;3.85;;;;;;;-146.27;91.79;83159.66;5036270;28;20028;-75
2023/06/03 02:45:53;;;;;;;11.48;4.57;;;;;;;-146.27;91.19;83167.69;5048136;28;20532;-74
2023/06/03 02:48:18;;;;;;;6.88;3.70;;;;;;;-146.27;91.57;83155.63;5035260;28;20442;-75
2023/06/03 02:50:43;;;;;;;9.05;3.63;;;;;;;-146.27;90.99;83187.78;5046342;28;20047;-75
2023/06/03 02:53:11;;;;;;;8.02;3.80;;;;;;;-146.27;92.29;83177.75;5041739;28;20052;-75
2023/06/03 02:55:36;;;;;;;7.65;4.03;;;;;;;-146.27;91.74;83183.78;5053264;28;20589;-74
2023/06/03 02:58:02;;;;;;;5.68;3.38;;;;;;;-146.27;90.62;83179.75;5064055;28;20091;-75
2023/06/03 03:00:27;;;;;;;5.70;3.90;;;;;;;-146.27;90.53;83157.66;5040413;28;20032;-74
2023/06/03 03:02:53;;;;;;;6.07;3.42;;;;;;;-146.27;91.32;83211.91;5049228;28;20029;-75
2023/06/03 03:05:19;;;;;;;6.13;3.45;;;;;;;-146.27;91.54;83207.88;5037026;28;20761;-75
2023/06/03 03:07:46;;;;;;;6.85;3.63;;;;;;;-146.27;90.80;83213.91;5036104;28;20087;-74
2023/06/03 03:10:11;;;;;;;9.90;4.10;;;;;;;-146.27;90.72;83203.88;5042502;28;20067;-75
2023/06/03 03:12:37;;;;;;;9.98;4.03;;;;;;;-146.27;90.40;83219.94;5051895;28;20064;-74
2023/06/03 03:15:02;;;;;;;7.60;4.45;;;;;;;-146.27;90.96;83225.97;5052573;28;20021;-75
2023/06/03 03:17:28;;;;;;;8.82;4.90;;;;;;;-146.27;91.05;83238.03;5034535;28;20033;-74
2023/06/03 03:19:53;;;;;;;6.25;3.85;;;;;;;-146.27;90.05;83215.91;5040045;28;20056;-74
2023/06/03 03:22:18;;;;;;;7.45;4.15;;;;;;;-146.27;90.52;83207.88;5042707;28;20036;-74
2023/06/03 03:24:44;;;;;;;12.25;4.13;;;;;;;-146.27;90.79;83236.00;5052961;28;20029;-74
2023/06/03 03:27:09;;;;;;;8.88;3.88;;;;;;;-146.27;90.64;83244.03;5042481;28;20037;-76
2023/06/03 03:29:35;;;;;;;6.95;3.92;;;;;;;-146.27;90.48;83244.03;5046100;28;20469;-74
2023/06/03 03:32:06;;;;;;;10.70;4.00;;;;;;;-146.27;90.03;83286.25;5045187;28;20026;-72
2023/06/03 03:34:32;;;;;;;10.52;4.13;;;;;;;-146.27;90.46;83292.28;5053954;28;20074;-75
2023/06/03 03:36:58;;;;;;;10.05;3.90;;;;;;;-146.27;90.80;83244.03;5047290;28;20029;-74
2023/06/03 03:39:23;;;;;;;5.70;3.72;;;;;;;-146.27;90.60;83278.19;5051271;28;20361;-75
2023/06/03 03:41:49;;;;;;;7.20;4.15;;;;;;;-146.27;90.26;83296.28;5052961;28;20036;-74
2023/06/03 03:44:14;;;;;;;6.50;3.90;;;;;;;-146.27;90.48;83316.38;5050579;28;20463;-74
2023/06/03 03:46:59;;;;;;;5.10;3.85;;;;;;;-146.27;90.56;83332.44;5053051;28;20017;-75
2023/06/03 03:49:31;;;;;;;10.63;4.03;;;;;;;-146.27;91.52;83288.25;5046468;28;20041;-74
2023/06/03 03:52:02;;;;;;;8.35;3.88;;;;;;;-146.27;90.61;83334.47;5044364;28;20025;-74
2023/06/03 03:54:27;;;;;;;7.95;3.78;;;;;;;-146.27;90.72;83322.41;5041359;28;20093;-74
2023/06/03 03:56:54;;;;;;;11.00;3.78;;;;;;;-146.27;90.75;83322.41;5048860;28;20032;-74
2023/06/03 03:59:20;;;;;;;5.80;3.28;;;;;;;-146.27;91.23;83312.34;5045896;28;20667;-74
2023/06/03 04:01:45;;;;;;;5.30;3.40;;;;;;;-146.27;90.76;83300.31;5049365;28;20056;-74
2023/06/03 04:04:19;;;;;;;8.50;4.55;;;;;;;-146.27;90.98;83308.34;5047503;28;20538;-74
2023/06/03 04:06:45;;;;;;;9.10;3.72;;;;;;;-146.27;90.55;83314.38;5033916;28;20056;-74
2023/06/03 04:09:11;;;;;;;7.82;3.75;;;;;;;-146.27;91.15;83308.34;5042907;28;20103;-74
2023/06/03 04:11:38;;;;;;;7.30;3.72;;;;;;;-146.27;91.17;83332.44;5056031;28;20126;-74
2023/06/03 04:14:08;;;;;;;7.75;3.47;;;;;;;-146.27;90.30;83304.31;5064793;28;20041;-75
2023/06/03 04:16:41;;;;;;;6.88;4.70;;;;;;;-146.27;91.00;83302.31;5044926;28;20053;-74
2023/06/03 04:19:27;;;;;;;8.60;4.35;;;;;;;-146.27;90.38;83310.34;5045412;28;20022;-74
2023/06/03 04:21:53;;;;;;;8.13;4.18;;;;;;;-146.27;90.10;83302.31;5044876;28;20033;-74
2023/06/03 04:24:18;;;;;;;4.80;3.55;;;;;;;-146.27;90.38;83262.13;5057895;28;20754;-74
2023/06/03 04:26:44;;;;;;;6.53;3.67;;;;;;;-146.27;90.37;83217.94;5048697;28;20617;-74
2023/06/03 04:29:09;;;;;;;6.72;3.67;;;;;;;-146.27;90.55;83288.25;5049759;28;20044;-75
2023/06/03 04:31:35;;;;;;;7.38;4.10;;;;;;;-146.27;89.42;83288.25;5048418;28;20029;-74
2023/06/03 04:34:00;;;;;;;7.38;3.92;;;;;;;-146.27;90.07;83232.00;5047009;28;20088;-74
2023/06/03 04:36:25;;;;;;;4.53;3.75;;;;;;;-146.27;90.15;83213.91;5047089;28;20036;-74
2023/06/03 04:38:51;;;;;;;8.43;3.60;;;;;;;-146.27;89.10;83236.00;5039564;28;20087;-75
2023/06/03 04:41:16;;;;;;;7.00;4.18;;;;;;;-146.27;89.57;83193.81;5050862;28;20032;-74
2023/06/03 04:43:45;;;;;;;6.35;3.75;;;;;;;-146.27;89.98;83219.94;5034453;28;20037;-74
2023/06/03 04:46:12;;;;;;;5.40;3.35;;;;;;;-146.27;89.04;83207.88;5034072;28;20027;-75
2023/06/03 04:48:41;;;;;;;7.47;3.95;;;;;;;-146.27;88.75;83183.78;5049382;28;20024;-73
2023/06/03 04:51:07;;;;;;;5.22;3.35;;;;;;;-146.27;88.59;83215.91;5041688;28;20052;-74
2023/06/03 04:53:34;;;;;;;6.75;3.45;;;;;;;-146.27;87.75;83169.69;5046993;28;20033;-74
2023/06/03 04:56:02;;;;;;;5.40;3.33;;;;;;;-146.27;88.08;83165.69;5035181;28;20416;-75
2023/06/03 04:58:28;;;;;;;3.85;3.28;;;;;;;-146.27;88.26;83143.59;5040310;28;20512;-74
2023/06/03 05:00:53;;;;;;;7.72;4.07;;;;;;;-146.27;87.84;83145.59;5047505;28;20060;-74
2023/06/03 05:03:18;;;;;;;5.82;3.30;;;;;;;-146.27;87.72;83139.56;5032884;28;20033;-75
2023/06/03 05:05:44;;;;;;;8.18;3.35;;;;;;;-146.27;86.98;83113.44;5044596;28;20025;-75
2023/06/03 05:08:10;;;;;;;5.70;3.33;;;;;;;-146.27;87.03;83103.41;5038922;28;20114;-75
2023/06/03 05:10:36;;;;;;;3.95;2.90;;;;;;;-146.27;87.08;83147.59;5033364;28;20021;-74
2023/06/03 05:13:03;;;;;;;9.13;3.35;;;;;;;-146.27;87.28;83065.22;5037305;28;20542;-74
2023/06/03 05:15:28;;;;;;;11.45;3.20;;;;;;;-146.27;86.76;83099.38;5036519;28;20075;-75
2023/06/03 05:17:53;;;;;;;8.00;3.63;;;;;;;-146.27;85.91;83075.28;5049335;28;20076;-75
2023/06/03 05:20:19;;;;;;;8.68;3.53;;;;;;;-146.27;85.80;83043.13;5043985;28;20013;-75
2023/06/03 05:22:44;;;;;;;9.48;3.63;;;;;;;-146.27;86.80;83129.53;5044624;28;20561;-75
2023/06/03 05:25:09;;;;;;;8.15;2.83;;;;;;;-146.27;86.13;82996.91;5029652;28;20028;-75
2023/06/03 05:27:35;;;;;;;5.43;2.83;;;;;;;-146.27;85.18;83079.28;5047487;28;20033;-75
2023/06/03 05:30:01;;;;;;;5.85;3.15;;;;;;;-146.27;84.30;83023.03;5048564;28;20033;-74
2023/06/03 05:32:26;;;;;;;12.82;3.13;;;;;;;-146.27;84.26;83051.16;5048690;28;20444;-74
2023/06/03 05:34:51;;;;;;;4.90;3.08;;;;;;;-146.27;84.39;82996.91;5048416;28;20031;-74
2023/06/03 05:37:18;;;;;;;6.93;2.90;;;;;;;-146.27;84.21;83000.94;5049901;28;20497;-74
2023/06/03 05:39:43;;;;;;;4.65;2.53;;;;;;;-146.27;81.79;82992.91;5034610;28;20033;-74
2023/06/03 05:42:08;;;;;;;7.00;2.50;;;;;;;-146.27;80.76;83019.03;5051142;28;20087;-74
2023/06/03 05:44:34;;;;;;;6.63;2.58;;;;;;;-146.27;79.06;82978.84;5047006;28;20087;-74
2023/06/03 05:46:59;;;;;;;4.90;2.40;;;;;;;-146.27;77.29;82954.72;5049317;28;20029;-74
2023/06/03 05:49:24;;;;;;;5.03;2.67;;;;;;;-146.27;77.94;82964.78;5047719;28;20025;-69
2023/06/03 05:51:50;;;;;;;5.28;2.28;;;;;;;-146.27;74.72;82970.81;5044719;28;20056;-75
2023/06/03 05:54:15;;;;;;;5.75;2.45;;;;;;;-146.27;75.58;82940.66;5045792;28;20021;-74
2023/06/03 05:56:40;;;;;;;9.25;2.60;;;;;;;-146.27;75.78;82902.50;5048336;28;20036;-74
2023/06/03 05:59:06;;;;;;;4.60;2.58;;;;;;;-146.27;74.98;82888.44;5041246;28;20021;-74
2023/06/03 06:01:33;;;;;;;4.50;2.40;;;;;;;-146.27;74.52;82878.38;5033353;28;20052;-74
2023/06/03 06:03:58;;;;;;;7.18;2.33;;;;;;;-146.27;73.93;82874.38;5043506;28;20036;-74
2023/06/03 06:06:23;;;;;;;2.72;2.25;;;;;;;-146.27;73.86;82822.13;5036408;28;20392;-74
2023/06/03 06:08:49;;;;;;;4.22;2.47;;;;;;;-146.27;72.90;82850.25;5036211;28;20029;-75
2023/06/03 06:11:15;;;;;;;5.88;2.42;;;;;;;-146.27;74.30;82850.25;5051934;28;20113;-75
2023/06/03 06:13:40;;;;;;;8.32;2.50;;;;;;;-146.27;73.92;82814.09;5049877;28;20524;-75
2023/06/03 06:16:06;;;;;;;3.35;2.17;;;;;;;-146.27;72.85;82820.13;5048412;28;20033;-74
2023/06/03 06:18:31;;;;;;;7.05;2.45;;;;;;;-146.27;72.36;82794.00;5044117;28;20116;-75
2023/06/03 06:20:57;;;;;;;4.28;2.25;;;;;;;-146.27;73.31;82771.91;5042807;28;20036;-73
2023/06/03 06:23:23;;;;;;;4.13;2.42;;;;;;;-146.27;73.04;82794.00;5045831;28;20028;-71
2023/06/03 06:25:50;;;;;;;3.90;2.30;;;;;;;-146.27;72.65;82745.78;5045815;28;20071;-73
2023/06/03 06:28:20;;;;;;;6.97;2.70;;;;;;;-146.27;72.00;82715.66;5048693;28;20028;-74
2023/06/03 06:30:46;;;;;;;2.70;1.95;;;;;;;-146.27;71.50;82715.66;5053468;28;20025;-75
2023/06/03 06:33:16;;;;;;;6.38;2.17;;;;;;;-146.27;71.30;82707.63;5056761;28;20388;-75
2023/06/03 06:35:42;;;;;;;5.15;2.28;;;;;;;-146.27;69.14;82701.59;5053840;28;20121;-75
2023/06/03 06:38:07;;;;;;;4.97;2.40;;;;;;;-146.27;68.30;82581.06;5047990;28;20502;-73
2023/06/03 06:40:34;;;;;;;5.38;2.30;;;;;;;-146.27;67.79;82641.31;5043351;28;20203;-76
2023/06/03 06:42:59;;;;;;;3.30;1.80;;;;;;;-146.27;68.49;82625.25;5041584;28;20053;-75
2023/06/03 06:45:27;;;;;;;3.33;1.95;;;;;;;-146.27;67.93;82673.47;5053499;28;20063;-76
2023/06/03 06:48:13;;;;;;;7.15;3.03;;;;;;;-146.27;65.36;82619.22;5051925;28;20119;-74
2023/06/03 06:50:55;;;;;;;7.00;2.08;;;;;;;-146.27;64.29;82629.28;5055412;28;20097;-75
2023/06/03 06:53:23;;;;;;;4.78;2.17;;;;;;;-146.27;64.02;82554.94;5057386;28;20462;-75
2023/06/03 06:55:54;;;;;;;4.00;1.88;;;;;;;-146.27;64.57;82552.94;5059684;28;20100;-74
2023/06/03 06:58:22;;;;;;;5.72;1.90;;;;;;;-146.27;63.10;82548.91;5062086;28;20051;-74
2023/06/03 07:00:49;;;;;;;5.15;2.00;;;;;;;-146.27;63.59;82512.75;5056309;28;20028;-74
2023/06/03 07:03:16;;;;;;;5.38;2.22;;;;;;;-146.27;61.35;82484.63;5052886;28;20025;-75
2023/06/03 07:05:42;;;;;;;5.35;1.55;;;;;;;-146.27;61.82;82464.53;5049382;28;20378;-74
2023/06/03 07:08:07;;;;;;;4.65;1.92;;;;;;;-146.27;63.04;82480.59;5044309;28;20120;-74
2023/06/03 07:10:32;;;;;;;3.17;2.15;;;;;;;-146.27;62.64;82472.56;5045608;28;20017;-75
2023/06/03 07:12:58;;;;;;;3.63;1.73;;;;;;;-146.27;61.62;82464.53;5046675;28;20049;-74
2023/06/03 07:15:24;;;;;;;5.22;1.80;;;;;;;-146.27;60.81;82444.44;5046041;28;20037;-75
2023/06/03 07:17:54;;;;;;;3.95;1.98;;;;;;;-146.27;59.41;82430.38;5056430;28;20033;-75
2023/06/03 07:20:22;;;;;;;6.15;2.05;;;;;;;-146.27;58.60;82374.13;5046734;28;20512;-75
2023/06/03 07:22:48;;;;;;;6.05;2.65;;;;;;;-146.27;57.12;82382.19;5063352;28;20059;-76
2023/06/03 07:25:35;;;;;;;2.78;1.45;;;;;;;-146.27;57.47;82368.13;5034264;28;20056;-76
2023/06/03 07:28:03;;;;;;;5.22;1.58;;;;;;;-146.27;57.28;82340.00;5037034;28;20071;-74
2023/06/03 07:30:29;;;;;;;3.28;1.60;;;;;;;-146.27;55.89;82337.97;5077584;28;20059;-77
2023/06/03 07:32:59;;;;;;;4.05;1.70;;;;;;;-146.27;55.58;82368.13;5045226;28;20111;-76
2023/06/03 07:35:25;;;;;;;1.90;1.30;;;;;;;-146.27;53.04;82317.91;5048062;28;20029;-75
2023/06/03 07:37:50;;;;;;;4.95;1.50;;;;;;;-146.27;52.99;82247.59;5036849;28;20105;-77
2023/06/03 07:40:16;;;;;;;3.30;1.48;;;;;;;-146.27;52.70;82231.53;5039409;28;20107;-75
2023/06/03 07:42:44;;;;;;;7.50;1.73;;;;;;;-146.27;54.69;82229.50;5040759;28;20033;-76
2023/06/03 07:45:13;;;;;;;7.00;1.33;;;;;;;-146.27;54.03;82211.44;5039819;28;20032;-74
2023/06/03 07:47:39;;;;;;;2.90;1.50;;;;;;;-146.27;51.17;82187.31;5047319;28;20055;-76
2023/06/03 07:50:25;;;;;;;3.45;1.38;;;;;;;-146.27;52.05;82143.13;5043968;28;20532;-74
2023/06/03 07:52:57;;;;;;;1.90;1.23;;;;;;;-146.27;49.86;82167.25;5040329;28;20334;-74
2023/06/03 07:55:23;;;;;;;1.90;1.13;;;;;;;-146.27;49.79;82070.81;5039077;28;20090;-75
2023/06/03 07:57:48;;;;;;;6.28;1.17;;;;;;;-146.27;49.70;82042.69;5046752;28;20584;-73
2023/06/03 08:00:16;;;;;;;2.85;1.30;;;;;;;-146.27;47.37;82054.75;5047638;28;20505;-72
2023/06/03 08:02:42;;;;;;;1.88;1.05;;;;;;;-146.27;46.54;81994.50;5046591;28;20025;-72
2023/06/03 08:05:10;;;;;;;6.55;1.50;;;;;;;-146.27;48.95;81978.44;5070427;28;20032;-72
2023/06/03 08:07:36;;;;;;;3.65;1.75;;;;;;;-146.27;46.57;81950.31;5047133;28;20543;-73
2023/06/03 08:10:03;;;;;;;10.00;1.50;;;;;;;-146.27;46.13;81914.16;5059270;28;20021;-73
2023/06/03 08:12:31;;;;;;;4.13;0.95;;;;;;;-146.27;46.47;81896.06;5052337;28;20057;-72
2023/06/03 08:14:57;;;;;;;2.13;1.00;;;;;;;-146.27;45.38;81904.13;5047327;28;20072;-72
2023/06/03 08:17:40;;;;;;;8.38;1.20;;;;;;;-146.27;44.11;81845.88;5044917;28;20057;-72
2023/06/03 08:20:09;;;;;;;3.38;0.90;;;;;;;-146.27;43.41;81801.69;5045088;28;20025;-72
2023/06/03 08:22:43;;;;;;;2.03;1.10;;;;;;;-146.27;42.64;81781.59;5065771;28;20047;-72
2023/06/03 08:25:09;;;;;;;3.92;1.10;;;;;;;-146.27;42.74;81707.28;5050634;28;20029;-72
2023/06/03 08:27:37;;;;;;;6.32;1.10;;;;;;;-146.27;40.82;81747.44;5059992;28;20032;-72
2023/06/03 08:30:06;;;;;;;1.60;1.02;;;;;;;-146.27;39.54;81755.47;5054989;28;20055;-71
2023/06/03 08:32:36;;;;;;;3.22;1.00;;;;;;;-146.27;41.19;81679.16;5032387;28;20044;-72
2023/06/03 08:35:02;;;;;;;3.08;1.15;;;;;;;-146.27;42.24;81657.06;5051925;28;20059;-72
2023/06/03 08:37:28;;;;;;;1.90;1.00;;;;;;;-146.27;41.16;81653.06;5051533;28;20029;-72
2023/06/03 08:39:54;;;;;;;2.50;1.13;;;;;;;-146.27;40.04;81612.88;5051035;28;20024;-72
2023/06/03 08:42:30;;;;;;;4.15;1.15;;;;;;;-146.27;40.32;81548.59;5038020;28;20362;-73
2023/06/03 08:45:02;;;;;;;2.50;0.90;;;;;;;-146.27;38.77;81524.50;5040993;28;20392;-73
2023/06/03 08:48:05;;;;;;;3.83;1.08;;;;;;;-146.27;38.98;81508.44;5051374;28;20039;-69
2023/06/03 08:50:33;;;;;;;2.45;1.00;;;;;;;-146.27;40.70;81462.25;5030090;28;20045;-67
2023/06/03 08:53:03;;;;;;;3.00;1.00;;;;;;;-146.27;39.38;81456.22;5045763;28;20025;-69
2023/06/03 08:55:30;;;;;;;4.95;1.17;;;;;;;-146.27;39.53;81422.09;5044554;28;20033;-69
2023/06/03 08:58:12;;;;;;;1.20;0.88;;;;;;;-146.27;38.32;81387.94;5044545;28;20033;-69
2023/06/03 09:00:39;;;;;;;3.88;1.23;;;;;;;-146.27;38.62;81406.03;5034056;28;20032;-69
2023/06/03 09:03:06;;;;;;;1.40;0.80;;;;;;;-146.27;36.91;81361.84;5036908;28;20029;-69
2023/06/03 09:05:33;;;;;;;1.67;0.90;;;;;;;-146.27;37.70;81319.66;5032388;28;20037;-68
2023/06/03 09:08:00;;;;;;;1.20;1.10;;;;;;;-146.27;35.22;81353.81;5050607;28;20032;-68
2023/06/03 09:10:32;;;;;;;1.25;0.85;;;;;;;-146.27;35.07;81287.53;5066583;28;20395;-67
2023/06/03 09:13:01;;;;;;;1.70;1.02;;;;;;;-146.27;35.02;81271.47;5046433;28;20036;-68
2023/06/03 09:15:28;;;;;;;3.58;0.95;;;;;;;-146.27;35.54;81261.44;5046616;28;20079;-69
2023/06/03 09:17:53;;;;;;;1.27;0.90;;;;;;;-146.27;34.54;81243.34;5027669;28;20041;-68
2023/06/03 09:20:19;;;;;;;2.35;1.00;;;;;;;-146.27;35.20;81229.28;5027433;28;20017;-70
2023/06/03 09:22:46;;;;;;;3.72;1.73;;;;;;;-146.27;34.88;81175.06;5036960;28;20569;-67
2023/06/03 09:25:13;;;;;;;3.40;0.95;;;;;;;-146.27;35.59;81120.84;5042260;28;20448;-69
2023/06/03 09:27:40;;;;;;;2.63;1.00;;;;;;;-146.27;33.47;81191.13;5047297;28;20075;-69
2023/06/03 09:30:06;;;;;;;4.03;1.17;;;;;;;-146.27;34.61;81136.91;5046892;28;20005;-69
2023/06/03 09:32:34;;;;;;;3.25;1.13;;;;;;;-146.27;34.87;81132.91;5047248;28;20052;-69
2023/06/03 09:35:04;;;;;;;2.03;0.90;;;;;;;-146.27;34.37;81108.81;5044966;28;20428;-69
2023/06/03 09:37:30;;;;;;;1.55;1.02;;;;;;;-146.27;34.07;81048.56;5027631;28;20079;-70
2023/06/03 09:39:55;;;;;;;2.83;1.40;;;;;;;-146.27;33.69;81082.69;5029911;28;20017;-69
2023/06/03 09:42:21;;;;;;;9.25;1.27;;;;;;;-146.27;33.69;81078.69;5046584;28;20061;-69
2023/06/03 09:44:54;;;;;;;4.97;1.10;;;;;;;-146.27;33.65;81050.56;5046342;28;20064;-70
2023/06/03 09:47:20;;;;;;;2.60;1.10;;;;;;;-146.27;33.61;81042.53;5044947;28;20041;-70
2023/06/03 09:50:07;;;;;;;7.60;1.67;;;;;;;-146.27;34.20;81020.44;5044652;28;20151;-67
2023/06/03 09:52:34;;;;;;;4.45;1.20;;;;;;;-146.27;33.70;80944.13;5041280;28;20418;-70
2023/06/03 09:55:01;;;;;;;5.68;1.30;;;;;;;-146.27;33.89;80924.06;5045368;28;20049;-69
2023/06/03 09:57:27;;;;;;;3.42;1.30;;;;;;;-146.27;33.70;80958.19;5046790;28;20052;-67
2023/06/03 10:00:12;;;;;;;2.90;1.27;;;;;;;-146.27;33.18;80928.06;5045001;28;20021;-68
2023/06/03 10:02:39;;;;;;;3.22;1.15;;;;;;;-146.27;33.36;80863.81;5042735;28;20025;-69
2023/06/03 10:05:27;;;;;;;3.83;1.40;;;;;;;-146.27;33.70;80897.94;5044330;28;20438;-68
2023/06/03 10:07:53;;;;;;;3.97;1.20;;;;;;;-146.27;33.90;80865.81;5046170;28;20035;-68
2023/06/03 10:10:18;;;;;;;4.15;1.13;;;;;;;-146.27;32.12;80851.75;5045635;28;20120;-68
2023/06/03 10:12:48;;;;;;;2.42;0.90;;;;;;;-146.27;32.61;80871.84;5046277;28;20404;-68
2023/06/03 10:15:35;;;;;;;5.25;1.48;;;;;;;-146.27;33.44;80847.75;5044238;28;20088;-68
2023/06/03 10:18:01;;;;;;;5.75;1.33;;;;;;;-146.27;33.48;80787.50;5044894;28;20079;-68
2023/06/03 10:20:32;;;;;;;2.13;1.10;;;;;;;-146.27;34.11;80761.41;5030826;28;20484;-67
2023/06/03 10:23:03;;;;;;;3.20;1.30;;;;;;;-146.27;32.65;80733.28;5031341;28;20040;-68
2023/06/03 10:25:42;;;;;;;3.65;1.23;;;;;;;-146.27;33.06;80693.13;5031132;28;20061;-70
2023/06/03 10:28:10;;;;;;;1.88;1.17;;;;;;;-146.27;33.50;80634.91;5031191;28;20029;-68
2023/06/03 10:30:35;;;;;;;3.08;1.20;;;;;;;-146.27;33.35;80640.94;5028130;28;20095;-69
2023/06/03 10:33:03;;;;;;;3.13;1.40;;;;;;;-146.27;33.38;80580.69;5029269;28;20037;-67
2023/06/03 10:35:31;;;;;;;2.80;1.20;;;;;;;-146.27;33.41;80518.44;5012914;28;20502;-68
2023/06/03 10:37:57;;;;;;;6.18;1.48;;;;;;;-146.27;32.41;80576.66;5025593;28;20068;-68
2023/06/03 10:40:22;;;;;;;2.80;1.13;;;;;;;-146.27;32.86;80568.63;5025521;28;20026;-68
2023/06/03 10:42:49;;;;;;;8.25;1.17;;;;;;;-146.27;33.44;80498.38;5031375;28;20041;-68
2023/06/03 10:45:14;;;;;;;5.28;1.65;;;;;;;-146.27;33.11;80546.56;5029967;28;20412;-68
2023/06/03 10:47:43;;;;;;;3.65;1.20;;;;;;;-146.27;32.98;80480.28;5031715;28;20022;-67
2023/06/03 10:50:32;;;;;;;3.00;1.25;;;;;;;-146.27;32.87;80452.19;5030730;28;20117;-68
2023/06/03 10:53:23;;;;;;;1.33;0.80;;;;;;;-146.27;34.56;80416.03;5031985;28;20018;-68
2023/06/03 10:56:04;;;;;;;3.85;1.10;;;;;;;-146.27;32.63;80410.03;5029869;28;20033;-69
2023/06/03 10:58:30;;;;;;;2.90;1.05;;;;;;;-146.27;32.79;80325.69;5022629;28;20056;-68
2023/06/03 11:01:03;;;;;;;8.75;1.35;;;;;;;-146.27;32.43;80271.47;5025316;28;20029;-68
2023/06/03 11:03:34;;;;;;;2.72;1.08;;;;;;;-146.27;33.14;80343.75;5026464;28;20022;-68
2023/06/03 11:06:18;;;;;;;3.17;0.90;;;;;;;-146.27;32.16;80327.69;5023366;28;20026;-68
2023/06/03 11:08:57;;;;;;;5.65;1.40;;;;;;;-146.27;32.18;80287.53;5030856;28;20572;-68
2023/06/03 11:11:40;;;;;;;2.88;0.98;;;;;;;-146.27;31.57;80283.53;5031384;28;20017;-68
2023/06/03 11:14:06;;;;;;;3.78;1.30;;;;;;;-146.27;32.03;80331.72;5030795;28;20120;-68
2023/06/03 11:16:58;;;;;;;4.53;1.38;;;;;;;-146.27;31.16;80247.38;5028788;28;20112;-68
2023/06/03 11:19:33;;;;;;;2.85;0.93;;;;;;;-146.27;31.92;80239.34;5033220;28;20132;-70
2023/06/03 11:22:07;;;;;;;1.73;1.10;;;;;;;-146.27;31.37;80205.22;5027404;28;20414;-68